sensor_id;sensor_type;location;lat;lon;timestamp;pressure;altitude;pressure_sealevel;temperature;humidity
24666;BME280;29726;53.532;-1.478;2023-02-17T00:01:49;100242.94;;;16.98;100.00
24666;BME280;29726;53.532;-1.478;2023-02-17T00:04:33;100243.69;;;16.98;100.00
24666;BME280;29726;53.532;-1.478;2023-02-17T00:07:18;100231.16;;;16.94;100.00
24666;BME280;29726;53.532;-1.478;2023-02-17T00:10:02;100236.00;;;16.99;100.00
24666;BME280;29726;53.532;-1.478;2023-02-17T00:12:46;100240.88;;;16.98;100.00
24666;BME280;29726;53.532;-1.478;2023-02-17T00:15:30;100231.41;;;16.96;100.00
24666;BME280;29726;53.532;-1.478;2023-02-17T00:18:14;100226.28;;;16.94;100.00
24666;BME280;29726;53.532;-1.478;2023-02-17T00:20:58;100205.00;;;16.88;100.00
24666;BME280;29726;53.532;-1.478;2023-02-17T00:23:43;100214.75;;;16.98;100.00
24666;BME280;29726;53.532;-1.478;2023-02-17T00:26:28;100200.66;;;16.92;100.00
24666;BME280;29726;53.532;-1.478;2023-02-17T00:29:12;100166.38;;;16.72;100.00
24666;BME280;29726;53.532;-1.478;2023-02-17T00:31:57;100203.47;;;16.98;100.00
24666;BME280;29726;53.532;-1.478;2023-02-17T00:34:40;100211.38;;;16.99;100.00
24666;BME280;29726;53.532;-1.478;2023-02-17T00:37:25;100196.03;;;16.95;100.00
24666;BME280;29726;53.532;-1.478;2023-02-17T00:40:08;100181.72;;;16.87;100.00
24666;BME280;29726;53.532;-1.478;2023-02-17T00:42:53;100200.09;;;17.05;100.00
24666;BME280;29726;53.532;-1.478;2023-02-17T00:45:37;100185.00;;;16.97;100.00
24666;BME280;29726;53.532;-1.478;2023-02-17T00:48:22;100200.59;;;17.03;100.00
24666;BME280;29726;53.532;-1.478;2023-02-17T00:51:06;100195.75;;;16.98;100.00
24666;BME280;29726;53.532;-1.478;2023-02-17T00:53:51;100195.75;;;16.98;100.00
24666;BME280;29726;53.532;-1.478;2023-02-17T00:56:35;100199.31;;;17.04;100.00
24666;BME280;29726;53.532;-1.478;2023-02-17T00:59:19;100199.59;;;17.06;100.00
24666;BME280;29726;53.532;-1.478;2023-02-17T01:02:03;100193.66;;;17.04;100.00
24666;BME280;29726;53.532;-1.478;2023-02-17T01:04:47;100197.28;;;17.05;100.00
24666;BME280;29726;53.532;-1.478;2023-02-17T01:07:31;100197.75;;;17.09;100.00
24666;BME280;29726;53.532;-1.478;2023-02-17T01:10:16;100190.59;;;17.02;100.00
24666;BME280;29726;53.532;-1.478;2023-02-17T01:13:00;100187.00;;;17.07;100.00
24666;BME280;29726;53.532;-1.478;2023-02-17T01:15:49;100186.47;;;17.09;100.00
24666;BME280;29726;53.532;-1.478;2023-02-17T01:18:33;100181.88;;;17.06;100.00
24666;BME280;29726;53.532;-1.478;2023-02-17T01:21:20;100174.44;;;17.08;100.00
24666;BME280;29726;53.532;-1.478;2023-02-17T01:24:07;100156.97;;;17.10;100.00
24666;BME280;29726;53.532;-1.478;2023-02-17T01:26:52;100175.97;;;17.09;100.00
24666;BME280;29726;53.532;-1.478;2023-02-17T01:29:36;100179.31;;;17.08;100.00
24666;BME280;29726;53.532;-1.478;2023-02-17T01:32:20;100182.91;;;17.08;100.00
24666;BME280;29726;53.532;-1.478;2023-02-17T01:35:04;100187.75;;;17.08;100.00
24666;BME280;29726;53.532;-1.478;2023-02-17T01:37:48;100194.19;;;17.08;100.00
24666;BME280;29726;53.532;-1.478;2023-02-17T01:40:32;100181.63;;;17.09;100.00
24666;BME280;29726;53.532;-1.478;2023-02-17T01:43:16;100176.22;;;17.11;100.00
24666;BME280;29726;53.532;-1.478;2023-02-17T01:46:03;100178.25;;;17.11;100.00
24666;BME280;29726;53.532;-1.478;2023-02-17T01:48:49;100181.31;;;17.13;100.00
24666;BME280;29726;53.532;-1.478;2023-02-17T01:51:35;100193.38;;;17.13;100.00
24666;BME280;29726;53.532;-1.478;2023-02-17T01:54:26;100160.13;;;17.01;100.00
24666;BME280;29726;53.532;-1.478;2023-02-17T01:57:15;100141.91;;;17.02;100.00
24666;BME280;29726;53.532;-1.478;2023-02-17T02:00:01;100149.81;;;17.09;100.00
24666;BME280;29726;53.532;-1.478;2023-02-17T02:02:47;100133.69;;;16.98;100.00
24666;BME280;29726;53.532;-1.478;2023-02-17T02:05:32;100130.03;;;17.14;100.00
24666;BME280;29726;53.532;-1.478;2023-02-17T02:08:17;100110.28;;;17.14;100.00
24666;BME280;29726;53.532;-1.478;2023-02-17T02:11:01;100110.84;;;17.07;100.00
24666;BME280;29726;53.532;-1.478;2023-02-17T02:13:45;100098.47;;;17.16;100.00
24666;BME280;29726;53.532;-1.478;2023-02-17T02:23:14;100116.44;;;17.13;100.00
24666;BME280;29726;53.532;-1.478;2023-02-17T02:33:23;100096.19;;;17.14;100.00
24666;BME280;29726;53.532;-1.478;2023-02-17T02:36:18;100103.34;;;17.15;100.00
24666;BME280;29726;53.532;-1.478;2023-02-17T02:39:14;100093.38;;;17.14;100.00
24666;BME280;29726;53.532;-1.478;2023-02-17T02:42:13;100092.88;;;17.10;100.00
24666;BME280;29726;53.532;-1.478;2023-02-17T02:44:59;100106.44;;;17.12;100.00
24666;BME280;29726;53.532;-1.478;2023-02-17T02:47:53;100105.41;;;17.15;100.00
24666;BME280;29726;53.532;-1.478;2023-02-17T02:51:02;100104.66;;;17.14;100.00
24666;BME280;29726;53.532;-1.478;2023-02-17T02:54:01;100101.81;;;17.14;100.00
24666;BME280;29726;53.532;-1.478;2023-02-17T02:57:06;100099.00;;;17.14;100.00
24666;BME280;29726;53.532;-1.478;2023-02-17T03:00:10;100086.94;;;17.14;100.00
24666;BME280;29726;53.532;-1.478;2023-02-17T03:03:41;100097.53;;;17.02;100.00
24666;BME280;29726;53.532;-1.478;2023-02-17T03:06:36;100093.41;;;17.09;100.00
24666;BME280;29726;53.532;-1.478;2023-02-17T03:09:25;100061.63;;;17.08;100.00
24666;BME280;29726;53.532;-1.478;2023-02-17T03:12:10;100059.53;;;17.09;100.00
24666;BME280;29726;53.532;-1.478;2023-02-17T03:15:02;100082.09;;;17.14;100.00
24666;BME280;29726;53.532;-1.478;2023-02-17T03:17:47;100062.59;;;17.11;100.00
24666;BME280;29726;53.532;-1.478;2023-02-17T03:20:37;100036.00;;;17.06;100.00
24666;BME280;29726;53.532;-1.478;2023-02-17T03:23:22;100045.97;;;17.07;100.00
24666;BME280;29726;53.532;-1.478;2023-02-17T03:26:06;100038.00;;;17.11;100.00
24666;BME280;29726;53.532;-1.478;2023-02-17T03:28:50;100032.13;;;17.09;100.00
24666;BME280;29726;53.532;-1.478;2023-02-17T03:31:34;100027.00;;;17.08;100.00
24666;BME280;29726;53.532;-1.478;2023-02-17T03:34:19;100026.72;;;17.11;100.00
24666;BME280;29726;53.532;-1.478;2023-02-17T03:37:03;100016.72;;;17.10;100.00
24666;BME280;29726;53.532;-1.478;2023-02-17T03:39:47;100024.94;;;17.08;100.00
24666;BME280;29726;53.532;-1.478;2023-02-17T03:42:31;100013.16;;;17.04;100.00
24666;BME280;29726;53.532;-1.478;2023-02-17T03:45:15;100008.03;;;17.08;100.00
24666;BME280;29726;53.532;-1.478;2023-02-17T03:47:59;99991.63;;;17.07;100.00
24666;BME280;29726;53.532;-1.478;2023-02-17T03:50:43;100004.19;;;17.06;100.00
24666;BME280;29726;53.532;-1.478;2023-02-17T03:53:27;100018.53;;;17.08;100.00
24666;BME280;29726;53.532;-1.478;2023-02-17T03:56:12;100028.53;;;17.09;100.00
24666;BME280;29726;53.532;-1.478;2023-02-17T03:58:57;100021.09;;;17.06;100.00
24666;BME280;29726;53.532;-1.478;2023-02-17T04:01:41;100027.00;;;17.08;100.00
24666;BME280;29726;53.532;-1.478;2023-02-17T04:04:25;100013.16;;;17.04;100.00
24666;BME280;29726;53.532;-1.478;2023-02-17T04:07:09;100012.16;;;17.02;100.00
24666;BME280;29726;53.532;-1.478;2023-02-17T04:09:53;100014.97;;;17.07;100.00
24666;BME280;29726;53.532;-1.478;2023-02-17T04:12:36;99993.72;;;17.01;100.00
24666;BME280;29726;53.532;-1.478;2023-02-17T04:15:20;100007.78;;;17.06;100.00
24666;BME280;29726;53.532;-1.478;2023-02-17T04:18:04;100012.41;;;17.04;100.00
24666;BME280;29726;53.532;-1.478;2023-02-17T04:20:49;99998.53;;;17.06;100.00
24666;BME280;29726;53.532;-1.478;2023-02-17T04:23:37;100027.53;;;17.06;100.00
24666;BME280;29726;53.532;-1.478;2023-02-17T04:26:21;100013.16;;;17.04;100.00
24666;BME280;29726;53.532;-1.478;2023-02-17T04:29:05;99991.88;;;17.03;100.00
24666;BME280;29726;53.532;-1.478;2023-02-17T04:31:49;99987.03;;;17.04;100.00
24666;BME280;29726;53.532;-1.478;2023-02-17T04:34:33;99980.59;;;17.03;100.00
24666;BME280;29726;53.532;-1.478;2023-02-17T04:37:17;99982.19;;;16.99;100.00
24666;BME280;29726;53.532;-1.478;2023-02-17T04:40:01;99979.06;;;17.02;100.00
24666;BME280;29726;53.532;-1.478;2023-02-17T04:42:45;99985.22;;;17.06;100.00
24666;BME280;29726;53.532;-1.478;2023-02-17T04:45:29;99941.94;;;16.98;100.00
24666;BME280;29726;53.532;-1.478;2023-02-17T04:48:13;99895.47;;;16.75;100.00
24666;BME280;29726;53.532;-1.478;2023-02-17T04:50:57;99934.28;;;16.93;100.00
24666;BME280;29726;53.532;-1.478;2023-02-17T04:53:41;99948.56;;;17.06;100.00
24666;BME280;29726;53.532;-1.478;2023-02-17T04:56:25;99947.81;;;17.00;100.00
24666;BME280;29726;53.532;-1.478;2023-02-17T04:59:09;99938.31;;;17.03;100.00
24666;BME280;29726;53.532;-1.478;2023-02-17T05:01:53;99952.41;;;17.03;100.00
24666;BME280;29726;53.532;-1.478;2023-02-17T05:04:37;99943.19;;;17.03;100.00
24666;BME280;29726;53.532;-1.478;2023-02-17T05:07:21;99940.16;;;16.95;100.00
24666;BME280;29726;53.532;-1.478;2023-02-17T05:10:05;99938.06;;;17.01;100.00
24666;BME280;29726;53.532;-1.478;2023-02-17T05:12:50;99941.34;;;17.05;100.00
24666;BME280;29726;53.532;-1.478;2023-02-17T05:15:35;99926.53;;;16.99;100.00
24666;BME280;29726;53.532;-1.478;2023-02-17T05:18:19;99961.88;;;17.06;100.00
24666;BME280;29726;53.532;-1.478;2023-02-17T05:21:03;99958.63;;;16.96;100.00
24666;BME280;29726;53.532;-1.478;2023-02-17T05:23:47;99964.00;;;17.00;100.00
24666;BME280;29726;53.532;-1.478;2023-02-17T05:26:31;99975.97;;;17.06;100.00
24666;BME280;29726;53.532;-1.478;2023-02-17T05:29:15;99967.03;;;17.02;100.00
24666;BME280;29726;53.532;-1.478;2023-02-17T05:31:59;99956.25;;;17.06;100.00
24666;BME280;29726;53.532;-1.478;2023-02-17T05:34:43;99968.31;;;17.06;100.00
24666;BME280;29726;53.532;-1.478;2023-02-17T05:37:27;99970.63;;;17.02;100.00
24666;BME280;29726;53.532;-1.478;2023-02-17T05:40:11;99970.69;;;16.97;100.00
24666;BME280;29726;53.532;-1.478;2023-02-17T05:42:55;99963.69;;;17.03;100.00
24666;BME280;29726;53.532;-1.478;2023-02-17T05:45:39;99965.78;;;16.97;100.00
24666;BME280;29726;53.532;-1.478;2023-02-17T05:48:23;99922.94;;;16.70;100.00
24666;BME280;29726;53.532;-1.478;2023-02-17T05:51:07;99962.97;;;16.97;100.00
24666;BME280;29726;53.532;-1.478;2023-02-17T05:53:51;99965.22;;;17.04;100.00
24666;BME280;29726;53.532;-1.478;2023-02-17T05:56:35;99967.28;;;17.04;100.00
24666;BME280;29726;53.532;-1.478;2023-02-17T05:59:19;99949.34;;;17.01;100.00
24666;BME280;29726;53.532;-1.478;2023-02-17T06:02:03;99965.47;;;17.06;100.00
24666;BME280;29726;53.532;-1.478;2023-02-17T06:04:47;99928.16;;;16.95;100.00
24666;BME280;29726;53.532;-1.478;2023-02-17T06:07:31;99949.59;;;17.03;100.00
24666;BME280;29726;53.532;-1.478;2023-02-17T06:10:15;99966.50;;;17.03;100.00
24666;BME280;29726;53.532;-1.478;2023-02-17T06:12:59;99952.97;;;16.96;100.00
24666;BME280;29726;53.532;-1.478;2023-02-17T06:15:43;99966.75;;;17.05;100.00
24666;BME280;29726;53.532;-1.478;2023-02-17T06:18:27;99967.28;;;17.04;100.00
24666;BME280;29726;53.532;-1.478;2023-02-17T06:21:11;99946.28;;;16.99;100.00
24666;BME280;29726;53.532;-1.478;2023-02-17T06:23:55;99941.66;;;17.02;100.00
24666;BME280;29726;53.532;-1.478;2023-02-17T06:26:38;99952.16;;;17.01;100.00
24666;BME280;29726;53.532;-1.478;2023-02-17T06:29:22;99920.41;;;17.01;100.00
24666;BME280;29726;53.532;-1.478;2023-02-17T06:32:07;99914.28;;;16.97;100.00
24666;BME280;29726;53.532;-1.478;2023-02-17T06:34:51;99927.84;;;16.98;100.00
24666;BME280;29726;53.532;-1.478;2023-02-17T06:37:35;99913.97;;;17.00;100.00
24666;BME280;29726;53.532;-1.478;2023-02-17T06:40:19;99869.91;;;16.97;100.00
24666;BME280;29726;53.532;-1.478;2023-02-17T06:43:05;99884.31;;;16.94;100.00
24666;BME280;29726;53.532;-1.478;2023-02-17T06:45:49;99872.78;;;16.92;100.00
24666;BME280;29726;53.532;-1.478;2023-02-17T06:48:33;99858.63;;;16.97;100.00
24666;BME280;29726;53.532;-1.478;2023-02-17T06:51:17;99859.25;;;16.85;100.00
24666;BME280;29726;53.532;-1.478;2023-02-17T06:54:01;99887.88;;;16.94;100.00
24666;BME280;29726;53.532;-1.478;2023-02-17T06:56:45;99836.63;;;16.67;100.00
24666;BME280;29726;53.532;-1.478;2023-02-17T06:59:30;99872.72;;;16.97;100.00
24666;BME280;29726;53.532;-1.478;2023-02-17T07:02:15;99862.75;;;16.96;100.00
24666;BME280;29726;53.532;-1.478;2023-02-17T07:04:59;99858.16;;;16.93;100.00
24666;BME280;29726;53.532;-1.478;2023-02-17T07:07:43;99844.09;;;16.88;100.00
24666;BME280;29726;53.532;-1.478;2023-02-17T07:10:27;99837.94;;;16.89;100.00
24666;BME280;29726;53.532;-1.478;2023-02-17T07:13:11;99820.63;;;16.80;100.00
24666;BME280;29726;53.532;-1.478;2023-02-17T07:15:55;99851.28;;;16.89;100.00
24666;BME280;29726;53.532;-1.478;2023-02-17T07:18:39;99850.53;;;16.88;100.00
24666;BME280;29726;53.532;-1.478;2023-02-17T07:21:24;99851.34;;;16.83;100.00
24666;BME280;29726;53.532;-1.478;2023-02-17T07:24:08;99833.41;;;16.81;100.00
24666;BME280;29726;53.532;-1.478;2023-02-17T07:26:53;99820.81;;;16.87;100.00
24666;BME280;29726;53.532;-1.478;2023-02-17T07:29:38;99828.72;;;16.89;100.00
24666;BME280;29726;53.532;-1.478;2023-02-17T07:32:23;99815.50;;;16.78;100.00
24666;BME280;29726;53.532;-1.478;2023-02-17T07:35:07;99828.84;;;16.78;100.00
24666;BME280;29726;53.532;-1.478;2023-02-17T07:37:50;99812.97;;;16.75;100.00
24666;BME280;29726;53.532;-1.478;2023-02-17T07:40:35;99785.44;;;16.86;100.00
24666;BME280;29726;53.532;-1.478;2023-02-17T07:43:19;99803.09;;;16.87;100.00
24666;BME280;29726;53.532;-1.478;2023-02-17T07:46:04;99786.25;;;16.81;100.00
24666;BME280;29726;53.532;-1.478;2023-02-17T07:48:49;99798.56;;;16.78;100.00
24666;BME280;29726;53.532;-1.478;2023-02-17T07:51:32;99809.06;;;16.83;100.00
24666;BME280;29726;53.532;-1.478;2023-02-17T07:54:16;99791.13;;;16.81;100.00
24666;BME280;29726;53.532;-1.478;2023-02-17T07:57:01;99778.50;;;16.87;100.00
24666;BME280;29726;53.532;-1.478;2023-02-17T07:59:46;99809.53;;;16.87;100.00
24666;BME280;29726;53.532;-1.478;2023-02-17T08:02:30;99754.47;;;16.81;100.00
24666;BME280;29726;53.532;-1.478;2023-02-17T08:05:14;99758.59;;;16.80;100.00
24666;BME280;29726;53.532;-1.478;2023-02-17T08:07:58;99762.09;;;16.86;100.00
24666;BME280;29726;53.532;-1.478;2023-02-17T08:11:01;99706.84;;;16.54;100.00
24666;BME280;29726;53.532;-1.478;2023-02-17T08:14:04;99676.84;;;16.56;100.00
24666;BME280;29726;53.532;-1.478;2023-02-17T08:16:48;99712.72;;;16.79;100.00
24666;BME280;29726;53.532;-1.478;2023-02-17T08:19:32;99709.91;;;16.79;100.00
24666;BME280;29726;53.532;-1.478;2023-02-17T08:22:16;99732.09;;;16.88;100.00
24666;BME280;29726;53.532;-1.478;2023-02-17T08:25:01;99725.91;;;16.90;100.00
24666;BME280;29726;53.532;-1.478;2023-02-17T08:27:45;99784.63;;;16.91;100.00
24666;BME280;29726;53.532;-1.478;2023-02-17T08:30:29;99744.84;;;16.95;100.00
24666;BME280;29726;53.532;-1.478;2023-02-17T08:33:13;99776.84;;;16.97;100.00
24666;BME280;29726;53.532;-1.478;2023-02-17T08:36:05;99745.59;;;16.95;100.00
24666;BME280;29726;53.532;-1.478;2023-02-17T08:38:50;99772.69;;;17.04;100.00
24666;BME280;29726;53.532;-1.478;2023-02-17T08:41:36;99759.94;;;16.97;100.00
24666;BME280;29726;53.532;-1.478;2023-02-17T08:44:21;99750.13;;;17.04;100.00
24666;BME280;29726;53.532;-1.478;2023-02-17T08:47:06;99762.41;;;17.06;100.00
24666;BME280;29726;53.532;-1.478;2023-02-17T08:49:50;99783.69;;;17.07;100.00
24666;BME280;29726;53.532;-1.478;2023-02-17T08:52:34;99770.88;;;17.06;100.00
24666;BME280;29726;53.532;-1.478;2023-02-17T08:55:18;99787.94;;;17.14;100.00
24666;BME280;29726;53.532;-1.478;2023-02-17T08:58:02;99786.66;;;17.15;100.00
24666;BME280;29726;53.532;-1.478;2023-02-17T09:00:47;99775.84;;;17.19;100.00
24666;BME280;29726;53.532;-1.478;2023-02-17T09:03:35;99774.84;;;17.16;100.00
24666;BME280;29726;53.532;-1.478;2023-02-17T09:06:20;99757.69;;;17.14;100.00
24666;BME280;29726;53.532;-1.478;2023-02-17T09:09:05;99782.81;;;17.18;100.00
24666;BME280;29726;53.532;-1.478;2023-02-17T09:11:49;99771.50;;;17.18;100.00
24666;BME280;29726;53.532;-1.478;2023-02-17T09:14:33;99772.25;;;17.18;100.00
24666;BME280;29726;53.532;-1.478;2023-02-17T09:17:17;99764.59;;;17.19;100.00
24666;BME280;29726;53.532;-1.478;2023-02-17T09:20:01;99763.28;;;17.20;100.00
24666;BME280;29726;53.532;-1.478;2023-02-17T09:22:46;99799.81;;;17.31;100.00
24666;BME280;29726;53.532;-1.478;2023-02-17T09:25:30;99771.66;;;17.25;100.00
24666;BME280;29726;53.532;-1.478;2023-02-17T09:28:14;99765.31;;;17.19;100.00
24666;BME280;29726;53.532;-1.478;2023-02-17T09:31:06;99813.34;;;17.38;100.00
24666;BME280;29726;53.532;-1.478;2023-02-17T09:33:50;99799.47;;;17.40;100.00
24666;BME280;29726;53.532;-1.478;2023-02-17T09:36:39;99806.97;;;17.37;100.00
24666;BME280;29726;53.532;-1.478;2023-02-17T09:39:23;99800.25;;;17.40;100.00
24666;BME280;29726;53.532;-1.478;2023-02-17T09:42:17;99827.84;;;17.47;100.00
24666;BME280;29726;53.532;-1.478;2023-02-17T09:45:25;99830.44;;;17.45;100.00
24666;BME280;29726;53.532;-1.478;2023-02-17T09:48:13;99838.84;;;17.51;100.00
24666;BME280;29726;53.532;-1.478;2023-02-17T09:51:05;99779.97;;;17.42;100.00
24666;BME280;29726;53.532;-1.478;2023-02-17T09:54:14;99868.09;;;17.53;100.00
24666;BME280;29726;53.532;-1.478;2023-02-17T09:57:02;99839.25;;;17.60;100.00
24666;BME280;29726;53.532;-1.478;2023-02-17T09:59:52;99867.03;;;17.56;100.00
24666;BME280;29726;53.532;-1.478;2023-02-17T10:02:46;99834.16;;;17.35;100.00
24666;BME280;29726;53.532;-1.478;2023-02-17T10:05:37;99914.34;;;17.69;100.00
24666;BME280;29726;53.532;-1.478;2023-02-17T10:08:27;99864.00;;;17.73;100.00
24666;BME280;29726;53.532;-1.478;2023-02-17T10:11:24;99929.16;;;17.75;100.00
24666;BME280;29726;53.532;-1.478;2023-02-17T10:14:26;99948.66;;;17.78;100.00
24666;BME280;29726;53.532;-1.478;2023-02-17T10:20:48;99947.53;;;17.87;100.00
24666;BME280;29726;53.532;-1.478;2023-02-17T10:23:33;99963.47;;;17.84;100.00
24666;BME280;29726;53.532;-1.478;2023-02-17T10:29:36;99986.47;;;17.94;100.00
24666;BME280;29726;53.532;-1.478;2023-02-17T10:32:26;100005.91;;;17.97;100.00
24666;BME280;29726;53.532;-1.478;2023-02-17T10:35:14;100033.13;;;18.00;100.00
24666;BME280;29726;53.532;-1.478;2023-02-17T10:41:03;100060.59;;;18.00;100.00
24666;BME280;29726;53.532;-1.478;2023-02-17T10:43:49;100049.91;;;17.93;100.00
24666;BME280;29726;53.532;-1.478;2023-02-17T10:46:33;100078.88;;;17.93;100.00
24666;BME280;29726;53.532;-1.478;2023-02-17T10:49:25;100074.91;;;18.07;100.00
24666;BME280;29726;53.532;-1.478;2023-02-17T10:52:38;100105.97;;;18.07;100.00
24666;BME280;29726;53.532;-1.478;2023-02-17T10:55:36;100080.34;;;17.76;100.00
24666;BME280;29726;53.532;-1.478;2023-02-17T10:58:27;100136.28;;;18.07;100.00
24666;BME280;29726;53.532;-1.478;2023-02-17T11:01:14;100135.53;;;18.06;100.00
24666;BME280;29726;53.532;-1.478;2023-02-17T11:04:04;100133.34;;;17.94;100.00
24666;BME280;29726;53.532;-1.478;2023-02-17T11:06:51;100162.72;;;18.09;100.00
24666;BME280;29726;53.532;-1.478;2023-02-17T11:09:39;100154.00;;;18.07;100.00
24666;BME280;29726;53.532;-1.478;2023-02-17T11:12:42;100171.94;;;18.10;100.00
24666;BME280;29726;53.532;-1.478;2023-02-17T11:15:34;100195.38;;;18.05;100.00
24666;BME280;29726;53.532;-1.478;2023-02-17T11:18:26;100192.03;;;18.06;100.00
24666;BME280;29726;53.532;-1.478;2023-02-17T11:21:11;100213.53;;;18.15;100.00
24666;BME280;29726;53.532;-1.478;2023-02-17T11:24:02;100251.81;;;18.16;100.00
24666;BME280;29726;53.532;-1.478;2023-02-17T11:26:57;100265.16;;;18.15;100.00
24666;BME280;29726;53.532;-1.478;2023-02-17T11:29:41;100219.16;;;17.85;100.00
24666;BME280;29726;53.532;-1.478;2023-02-17T11:32:30;100270.81;;;18.15;100.00
24666;BME280;29726;53.532;-1.478;2023-02-17T11:38:18;100277.22;;;18.16;100.00
24666;BME280;29726;53.532;-1.478;2023-02-17T11:41:04;100313.44;;;18.17;100.00
24666;BME280;29726;53.532;-1.478;2023-02-17T11:53:22;100406.69;;;18.17;100.00
24666;BME280;29726;53.532;-1.478;2023-02-17T12:02:05;100444.94;;;18.18;100.00
24666;BME280;29726;53.532;-1.478;2023-02-17T12:05:36;100461.16;;;18.18;100.00
24666;BME280;29726;53.532;-1.478;2023-02-17T12:11:54;100490.69;;;18.17;100.00
24666;BME280;29726;53.532;-1.478;2023-02-17T12:34:20;100555.19;;;18.13;100.00
24666;BME280;29726;53.532;-1.478;2023-02-17T12:37:18;100551.34;;;18.10;100.00
24666;BME280;29726;53.532;-1.478;2023-02-17T12:40:21;100556.50;;;18.06;100.00
24666;BME280;29726;53.532;-1.478;2023-02-17T12:43:27;100548.81;;;18.01;100.00
24666;BME280;29726;53.532;-1.478;2023-02-17T12:46:16;100546.47;;;18.05;100.00
24666;BME280;29726;53.532;-1.478;2023-02-17T12:49:36;100560.84;;;18.07;100.00
24666;BME280;29726;53.532;-1.478;2023-02-17T12:52:43;100550.84;;;18.06;100.00
24666;BME280;29726;53.532;-1.478;2023-02-17T12:55:44;100560.34;;;18.03;100.00
24666;BME280;29726;53.532;-1.478;2023-02-17T12:58:32;100574.97;;;18.07;100.00
24666;BME280;29726;53.532;-1.478;2023-02-17T13:01:18;100576.53;;;18.03;100.00
24666;BME280;29726;53.532;-1.478;2023-02-17T13:04:05;100588.34;;;18.07;100.00
24666;BME280;29726;53.532;-1.478;2023-02-17T13:06:55;100600.66;;;18.04;100.00
24666;BME280;29726;53.532;-1.478;2023-02-17T13:09:46;100597.34;;;18.05;100.00
24666;BME280;29726;53.532;-1.478;2023-02-17T13:12:34;100631.50;;;18.07;100.00
24666;BME280;29726;53.532;-1.478;2023-02-17T13:18:27;100631.50;;;18.07;100.00
24666;BME280;29726;53.532;-1.478;2023-02-17T13:24:28;100639.44;;;18.09;100.00
24666;BME280;29726;53.532;-1.478;2023-02-17T13:30:25;100635.59;;;18.06;100.00
24666;BME280;29726;53.532;-1.478;2023-02-17T13:36:22;100653.84;;;18.11;100.00
24666;BME280;29726;53.532;-1.478;2023-02-17T13:42:41;100672.06;;;18.15;100.00
24666;BME280;29726;53.532;-1.478;2023-02-17T13:45:39;100674.13;;;18.09;100.00
24666;BME280;29726;53.532;-1.478;2023-02-17T13:48:31;100671.56;;;18.11;100.00
24666;BME280;29726;53.532;-1.478;2023-02-17T13:51:26;100672.06;;;18.10;100.00
24666;BME280;29726;53.532;-1.478;2023-02-17T13:54:11;100678.50;;;18.05;100.00
24666;BME280;29726;53.532;-1.478;2023-02-17T13:56:55;100697.75;;;18.17;100.00
24666;BME280;29726;53.532;-1.478;2023-02-17T13:59:39;100680.81;;;18.06;100.00
24666;BME280;29726;53.532;-1.478;2023-02-17T14:02:23;100728.59;;;18.21;100.00
24666;BME280;29726;53.532;-1.478;2023-02-17T14:05:19;100716.78;;;18.22;100.00
24666;BME280;29726;53.532;-1.478;2023-02-17T14:08:11;100733.75;;;18.22;100.00
24666;BME280;29726;53.532;-1.478;2023-02-17T14:10:56;100725.75;;;18.15;100.00
24666;BME280;29726;53.532;-1.478;2023-02-17T14:13:44;100738.59;;;18.22;100.00
24666;BME280;29726;53.532;-1.478;2023-02-17T14:16:36;100755.81;;;18.24;100.00
24666;BME280;29726;53.532;-1.478;2023-02-17T14:19:20;100748.38;;;18.21;100.00
24666;BME280;29726;53.532;-1.478;2023-02-17T14:22:05;100759.94;;;18.23;100.00
24666;BME280;29726;53.532;-1.478;2023-02-17T14:25:13;100763.00;;;18.19;100.00
24666;BME280;29726;53.532;-1.478;2023-02-17T14:27:57;100776.13;;;18.22;100.00
24666;BME280;29726;53.532;-1.478;2023-02-17T14:30:42;100777.91;;;18.20;100.00
24666;BME280;29726;53.532;-1.478;2023-02-17T14:33:26;100788.69;;;18.21;100.00
24666;BME280;29726;53.532;-1.478;2023-02-17T14:36:10;100785.38;;;18.23;100.00
24666;BME280;29726;53.532;-1.478;2023-02-17T14:38:55;100851.13;;;18.01;100.00
24666;BME280;29726;53.532;-1.478;2023-02-17T14:41:40;100860.56;;;17.76;100.00
24666;BME280;29726;53.532;-1.478;2023-02-17T14:44:24;100836.81;;;17.52;100.00
24666;BME280;29726;53.532;-1.478;2023-02-17T14:47:08;100863.47;;;17.45;100.00
24666;BME280;29726;53.532;-1.478;2023-02-17T14:49:53;100836.19;;;17.31;100.00
24666;BME280;29726;53.532;-1.478;2023-02-17T14:52:46;100817.44;;;17.23;100.00
24666;BME280;29726;53.532;-1.478;2023-02-17T14:55:36;100808.44;;;17.24;100.00
24666;BME280;29726;53.532;-1.478;2023-02-17T14:58:25;100835.47;;;17.36;100.00
24666;BME280;29726;53.532;-1.478;2023-02-17T15:01:12;100839.31;;;17.33;100.00
24666;BME280;29726;53.532;-1.478;2023-02-17T15:03:56;100846.81;;;17.42;100.00
24666;BME280;29726;53.532;-1.478;2023-02-17T15:06:43;100864.75;;;17.44;100.00
24666;BME280;29726;53.532;-1.478;2023-02-17T15:09:29;100865.81;;;17.47;100.00
24666;BME280;29726;53.532;-1.478;2023-02-17T15:12:20;100863.47;;;17.45;100.00
24666;BME280;29726;53.532;-1.478;2023-02-17T15:15:04;100858.09;;;17.42;100.00
24666;BME280;29726;53.532;-1.478;2023-02-17T15:17:48;100864.28;;;17.46;100.00
24666;BME280;29726;53.532;-1.478;2023-02-17T15:20:32;100875.03;;;17.47;100.00
24666;BME280;29726;53.532;-1.478;2023-02-17T15:23:19;100871.19;;;17.50;100.00
24666;BME280;29726;53.532;-1.478;2023-02-17T15:26:04;100864.75;;;17.44;100.00
24666;BME280;29726;53.532;-1.478;2023-02-17T15:28:48;100866.84;;;17.49;100.00
24666;BME280;29726;53.532;-1.478;2023-02-17T15:31:32;100879.13;;;17.46;100.00
24666;BME280;29726;53.532;-1.478;2023-02-17T15:34:20;100871.72;;;17.49;100.00
24666;BME280;29726;53.532;-1.478;2023-02-17T15:37:05;100860.88;;;17.36;100.00
24666;BME280;29726;53.532;-1.478;2023-02-17T15:39:49;100878.66;;;17.48;100.00